Time;durP1;ratioP1;P1;durP2;ratioP2;P2;SDS_P1;SDS_P2;PMS_P1;PMS_P2;Temp;Humidity;BMP_temperature;BMP_pressure;BME280_temperature;BME280_humidity;BME280_pressure;Samples;Min_cycle;Max_cycle;Signal;HPM_P1;HPM_P2
2023/07/29 00:01:06;;;;;;;;;;;;;;;18.17;98.82;100682.84;5070302;28;19916;-58
2023/07/29 00:03:32;;;;;;;;;;;;;;;18.18;98.91;100679.34;5071444;28;20362;-58
2023/07/29 00:05:57;;;;;;;;;;;;;;;18.19;99.17;100661.75;5071142;28;20384;-58
2023/07/29 00:08:22;;;;;;;;;;;;;;;18.20;98.81;100664.34;5071563;28;19912;-58
2023/07/29 00:10:47;;;;;;;;;;;;;;;18.19;98.99;100660.00;5070720;28;20351;-58
2023/07/29 00:13:13;;;;;;;;;;;;;;;18.19;98.96;100667.00;5073014;28;20403;-58
2023/07/29 00:15:38;;;;;;;;;;;;;;;18.12;99.05;100660.94;5067191;28;20418;-58
2023/07/29 00:18:03;;;;;;;;;;;;;;;18.03;98.95;100669.81;5070384;28;20003;-58
2023/07/29 00:20:28;;;;;;;;;;;;;;;17.95;99.44;100676.06;5062568;28;19916;-58
2023/07/29 00:22:54;;;;;;;;;;;;;;;17.85;99.67;100673.47;5070360;28;19922;-58
2023/07/29 00:25:20;;;;;;;;;;;;;;;17.80;100.00;100672.66;5071946;28;19920;-58
2023/07/29 00:27:45;;;;;;;;;;;;;;;17.79;100.00;100660.34;5068691;28;19912;-58
2023/07/29 00:30:10;;;;;;;;;;;;;;;17.83;100.00;100666.44;5068713;28;19917;-58
2023/07/29 00:32:36;;;;;;;;;;;;;;;17.83;100.00;100669.09;5069938;28;20414;-58
2023/07/29 00:35:01;;;;;;;;;;;;;;;17.85;100.00;100672.59;5070275;28;19950;-58
2023/07/29 00:37:27;;;;;;;;;;;;;;;17.83;100.00;100669.09;5069607;28;20367;-58
2023/07/29 00:39:53;;;;;;;;;;;;;;;17.80;100.00;100656.84;5070398;28;19916;-58
2023/07/29 00:42:18;;;;;;;;;;;;;;;17.77;100.00;100646.31;5069885;28;19913;-58
2023/07/29 00:44:43;;;;;;;;;;;;;;;17.72;100.00;100638.44;5070506;28;19916;-58
2023/07/29 00:47:09;;;;;;;;;;;;;;;17.69;100.00;100648.16;5070260;28;20444;-58
2023/07/29 00:49:34;;;;;;;;;;;;;;;17.70;100.00;100639.38;5051883;28;19912;-58
2023/07/29 00:51:59;;;;;;;;;;;;;;;17.71;100.00;100641.09;5072367;28;19927;-58
2023/07/29 00:54:24;;;;;;;;;;;;;;;17.68;100.00;100641.13;5070568;28;20007;-58
2023/07/29 00:56:50;;;;;;;;;;;;;;;17.68;100.00;100636.75;5070693;28;19912;-58
2023/07/29 00:59:15;;;;;;;;;;;;;;;17.71;100.00;100636.72;5071843;28;19912;-58
2023/07/29 01:01:40;;;;;;;;;;;;;;;17.70;100.00;100634.97;5072528;28;20025;-58
2023/07/29 01:04:06;;;;;;;;;;;;;;;17.69;100.00;100640.25;5053622;28;19957;-58
2023/07/29 01:06:43;;;;;;;;;;;;;;;17.68;100.00;100636.75;5050338;28;19967;-58
2023/07/29 01:09:13;;;;;;;;;;;;;;;17.68;100.00;100633.22;5070496;28;19915;-58
2023/07/29 01:11:47;;;;;;;;;;;;;;;17.64;100.00;100636.75;5067961;28;19920;-58
2023/07/29 01:14:16;;;;;;;;;;;;;;;17.61;100.00;100629.78;5065203;28;20306;-58
2023/07/29 01:16:46;;;;;;;;;;;;;;;17.63;100.00;100632.41;5066209;28;20395;-58
2023/07/29 01:19:32;;;;;;;;;;;;;;;17.63;100.00;100637.66;5071961;28;19912;-58
2023/07/29 01:21:58;;;;;;;;;;;;;;;17.61;100.00;100639.44;5053866;28;19916;-58
2023/07/29 01:24:23;;;;;;;;;;;;;;;17.58;100.00;100637.69;5058536;28;20363;-58
2023/07/29 01:26:48;;;;;;;;;;;;;;;17.58;100.00;100637.69;5069044;28;20293;-58
2023/07/29 01:29:13;;;;;;;;;;;;;;;17.60;100.00;100645.56;5070693;28;19920;-58
2023/07/29 01:31:43;;;;;;;;;;;;;;;17.61;100.00;100647.34;5071751;28;19935;-58
2023/07/29 01:34:21;;;;;;;;;;;;;;;17.61;100.00;100639.44;5071348;28;19912;-58
2023/07/29 01:36:46;;;;;;;;;;;;;;;17.62;100.00;100642.03;5070572;28;19916;-58
2023/07/29 01:39:12;;;;;;;;;;;;;;;17.62;100.00;100635.91;5070286;28;19908;-58
2023/07/29 01:41:37;;;;;;;;;;;;;;;17.58;100.00;100648.22;5068825;28;20005;-58
2023/07/29 01:44:03;;;;;;;;;;;;;;;17.54;100.00;100654.44;5069388;28;19934;-58
2023/07/29 01:46:28;;;;;;;;;;;;;;;17.48;100.00;100649.19;5067766;28;19924;-58
2023/07/29 01:48:53;;;;;;;;;;;;;;;17.45;100.00;100651.84;5067638;28;19916;-58
2023/07/29 01:51:18;;;;;;;;;;;;;;;17.44;100.00;100645.72;5066482;28;20461;-58
2023/07/29 01:53:44;;;;;;;;;;;;;;;17.32;100.00;100646.69;5068327;28;19912;-58
2023/07/29 01:56:09;;;;;;;;;;;;;;;17.35;100.00;100654.56;5070360;28;19966;-58
2023/07/29 01:58:34;;;;;;;;;;;;;;;17.25;100.00;100662.53;5070194;28;19915;-58
2023/07/29 02:00:59;;;;;;;;;;;;;;;17.25;100.00;100659.91;5067104;28;19920;-58
2023/07/29 02:03:24;;;;;;;;;;;;;;;17.11;100.00;100652.13;5066417;28;19918;-58
2023/07/29 02:05:50;;;;;;;;;;;;;;;17.10;100.00;100650.34;5068977;28;19917;-58
2023/07/29 02:08:15;;;;;;;;;;;;;;;17.09;100.00;100653.88;5070443;28;19916;-58
2023/07/29 02:10:40;;;;;;;;;;;;;;;17.03;100.00;100654.78;5070065;28;19924;-58
2023/07/29 02:13:06;;;;;;;;;;;;;;;17.00;100.00;100645.16;5063566;28;19966;-58
2023/07/29 02:15:31;;;;;;;;;;;;;;;17.01;100.00;100643.38;5059555;28;20321;-58
2023/07/29 02:17:56;;;;;;;;;;;;;;;16.99;100.00;100645.16;5070724;28;19978;-58
2023/07/29 02:20:21;;;;;;;;;;;;;;;16.97;100.00;100637.25;5061525;28;19915;-58
2023/07/29 02:22:48;;;;;;;;;;;;;;;16.99;100.00;100638.13;5059586;28;19990;-58
2023/07/29 02:25:13;;;;;;;;;;;;;;;17.02;100.00;100635.47;5065689;28;19916;-58
2023/07/29 02:27:39;;;;;;;;;;;;;;;17.02;100.00;100632.84;5064262;28;19991;-58
2023/07/29 02:30:04;;;;;;;;;;;;;;;17.04;100.00;100636.34;5062850;28;19920;-58
2023/07/29 02:32:29;;;;;;;;;;;;;;;17.05;100.00;100634.59;5070455;28;19964;-58
2023/07/29 02:34:54;;;;;;;;;;;;;;;17.07;100.00;100631.94;5070403;28;19919;-58
2023/07/29 02:37:20;;;;;;;;;;;;;;;17.07;100.00;100630.19;5066891;28;19912;-58
2023/07/29 02:39:45;;;;;;;;;;;;;;;17.08;100.00;100633.72;5057598;28;19913;-58
2023/07/29 02:42:10;;;;;;;;;;;;;;;17.06;100.00;100630.19;5066673;28;19950;-58
2023/07/29 02:44:35;;;;;;;;;;;;;;;17.06;100.00;100631.09;5064861;28;19916;-58
2023/07/29 02:47:01;;;;;;;;;;;;;;;17.06;100.00;100623.19;5067405;28;20294;-58
2023/07/29 02:49:26;;;;;;;;;;;;;;;17.04;100.00;100625.81;5065644;28;19920;-58
2023/07/29 02:51:51;;;;;;;;;;;;;;;17.00;100.00;100626.72;5069562;28;19913;-58
2023/07/29 02:54:16;;;;;;;;;;;;;;;17.00;100.00;100625.84;5067441;28;19957;-58
2023/07/29 02:56:41;;;;;;;;;;;;;;;16.99;100.00;100629.38;5065406;28;19913;-58
2023/07/29 02:59:07;;;;;;;;;;;;;;;16.98;100.00;100630.25;5069242;28;20255;-58
2023/07/29 03:01:32;;;;;;;;;;;;;;;16.95;100.00;100632.91;5063792;28;20015;-58
2023/07/29 03:03:57;;;;;;;;;;;;;;;16.93;100.00;100618.88;5062747;28;19913;-56
2023/07/29 03:06:22;;;;;;;;;;;;;;;16.91;100.00;100621.50;5067101;28;19916;-58
2023/07/29 03:08:47;;;;;;;;;;;;;;;16.91;100.00;100625.91;5067928;28;20301;-58
2023/07/29 03:11:13;;;;;;;;;;;;;;;16.91;100.00;100620.66;5046800;28;19916;-58
2023/07/29 03:13:39;;;;;;;;;;;;;;;16.92;100.00;100625.03;5064211;28;19919;-58
2023/07/29 03:16:05;;;;;;;;;;;;;;;16.94;100.00;100625.88;5067657;28;20154;-58
2023/07/29 03:18:30;;;;;;;;;;;;;;;16.94;100.00;100615.34;5050120;28;20392;-58
2023/07/29 03:20:55;;;;;;;;;;;;;;;16.93;100.00;100618.88;5067025;28;19912;-58
2023/07/29 03:23:21;;;;;;;;;;;;;;;16.91;100.00;100636.44;5065712;28;19916;-58
2023/07/29 03:25:48;;;;;;;;;;;;;;;16.85;100.00;100632.91;5066626;28;19978;-58
2023/07/29 03:28:13;;;;;;;;;;;;;;;16.84;100.00;100635.56;5068656;28;19921;-58
2023/07/29 03:30:38;;;;;;;;;;;;;;;16.81;100.00;100633.81;5069826;28;19912;-58
2023/07/29 03:33:04;;;;;;;;;;;;;;;16.78;100.00;100641.72;5067906;28;19920;-58
2023/07/29 03:35:29;;;;;;;;;;;;;;;16.74;100.00;100632.09;5064671;28;19920;-58
2023/07/29 03:37:54;;;;;;;;;;;;;;;16.73;100.00;100629.47;5068064;28;20015;-58
2023/07/29 03:40:19;;;;;;;;;;;;;;;16.71;100.00;100641.78;5065705;28;19963;-58
2023/07/29 03:42:45;;;;;;;;;;;;;;;16.69;100.00;100644.41;5065233;28;19916;-58
2023/07/29 03:45:10;;;;;;;;;;;;;;;16.67;100.00;100635.66;5067418;28;20131;-58
2023/07/29 03:47:35;;;;;;;;;;;;;;;16.59;100.00;100633.06;5066939;28;19966;-58
2023/07/29 03:50:00;;;;;;;;;;;;;;;16.56;100.00;100637.47;5064067;28;19912;-58
2023/07/29 03:52:25;;;;;;;;;;;;;;;16.54;100.00;100645.38;5062235;28;19919;-58
2023/07/29 03:54:51;;;;;;;;;;;;;;;16.50;100.00;100646.25;5067502;28;19920;-58
2023/07/29 03:57:16;;;;;;;;;;;;;;;16.47;100.00;100631.34;5067689;28;19978;-58
2023/07/29 03:59:41;;;;;;;;;;;;;;;16.43;100.00;100616.47;5066166;28;20433;-58
2023/07/29 04:02:06;;;;;;;;;;;;;;;16.43;100.00;100597.19;5062476;28;19938;-58
2023/07/29 04:04:31;;;;;;;;;;;;;;;16.42;100.00;100593.66;5068183;28;19916;-58
2023/07/29 04:06:57;;;;;;;;;;;;;;;16.43;100.00;100594.56;5067370;28;20405;-58
2023/07/29 04:09:22;;;;;;;;;;;;;;;16.42;100.00;100601.56;5065678;28;19970;-58
2023/07/29 04:11:48;;;;;;;;;;;;;;;16.42;100.00;100606.81;5068892;28;19969;-58
2023/07/29 04:14:13;;;;;;;;;;;;;;;16.40;100.00;100581.44;5060518;28;19993;-58
2023/07/29 04:16:38;;;;;;;;;;;;;;;16.35;100.00;100586.69;5056408;28;19918;-58
2023/07/29 04:19:03;;;;;;;;;;;;;;;16.31;100.00;100603.38;5072739;28;20286;-58
2023/07/29 04:21:28;;;;;;;;;;;;;;;16.30;100.00;100612.13;5060663;28;19924;-58
2023/07/29 04:23:54;;;;;;;;;;;;;;;16.26;100.00;100621.78;5064448;28;19919;-58
2023/07/29 04:26:19;;;;;;;;;;;;;;;16.27;100.00;100644.56;5062738;28;20294;-58
2023/07/29 04:28:44;;;;;;;;;;;;;;;16.27;100.00;100648.97;5062506;28;20453;-58
2023/07/29 04:31:09;;;;;;;;;;;;;;;16.26;100.00;100653.31;5062462;28;19917;-58
2023/07/29 04:33:34;;;;;;;;;;;;;;;16.28;100.00;100658.59;5063162;28;19919;-58
2023/07/29 04:36:00;;;;;;;;;;;;;;;16.28;100.00;100653.31;5063021;28;19939;-58
2023/07/29 04:38:30;;;;;;;;;;;;;;;16.28;100.00;100640.19;5062783;28;19952;-58
2023/07/29 04:40:55;;;;;;;;;;;;;;;16.29;100.00;100644.56;5068801;28;19919;-58
2023/07/29 04:43:20;;;;;;;;;;;;;;;16.29;100.00;100652.44;5069089;28;19912;-58
2023/07/29 04:45:45;;;;;;;;;;;;;;;16.30;100.00;100652.44;5070170;28;20297;-58
2023/07/29 04:48:10;;;;;;;;;;;;;;;16.31;100.00;100659.47;5068439;28;19998;-58
2023/07/29 04:50:35;;;;;;;;;;;;;;;16.32;100.00;100661.22;5071624;28;19912;-58
2023/07/29 04:53:01;;;;;;;;;;;;;;;16.34;100.00;100661.22;5070101;28;19912;-58
2023/07/29 04:55:26;;;;;;;;;;;;;;;16.32;100.00;100653.34;5069306;28;19912;-58
2023/07/29 04:57:51;;;;;;;;;;;;;;;16.36;100.00;100658.59;5069148;28;19912;-58
2023/07/29 05:00:16;;;;;;;;;;;;;;;16.38;100.00;100662.06;5069298;28;19966;-58
2023/07/29 05:02:41;;;;;;;;;;;;;;;16.38;100.00;100660.31;5070274;28;19912;-58
2023/07/29 05:05:07;;;;;;;;;;;;;;;16.39;100.00;100666.44;5069617;28;19927;-58
2023/07/29 05:07:33;;;;;;;;;;;;;;;16.38;100.00;100662.97;5069636;28;19913;-58
2023/07/29 05:09:58;;;;;;;;;;;;;;;16.39;100.00;100669.94;5068726;28;19927;-58
2023/07/29 05:12:23;;;;;;;;;;;;;;;16.42;100.00;100672.56;5068473;28;20378;-58
2023/07/29 05:14:48;;;;;;;;;;;;;;;16.41;100.00;100672.56;5070411;28;19912;-58
2023/07/29 05:17:13;;;;;;;;;;;;;;;16.41;100.00;100683.97;5069640;28;19919;-58
2023/07/29 05:19:39;;;;;;;;;;;;;;;16.40;100.00;100690.13;5070178;28;19946;-58
2023/07/29 05:22:04;;;;;;;;;;;;;;;16.42;100.00;100684.84;5070089;28;20370;-58
2023/07/29 05:24:29;;;;;;;;;;;;;;;16.45;100.00;100687.47;5071466;28;19915;-58
2023/07/29 05:26:54;;;;;;;;;;;;;;;16.43;100.00;100676.94;5069762;28;19918;-58
2023/07/29 05:29:19;;;;;;;;;;;;;;;16.45;100.00;100669.06;5067762;28;19948;-58
2023/07/29 05:31:45;;;;;;;;;;;;;;;16.46;100.00;100666.41;5069908;28;19916;-58
2023/07/29 05:34:10;;;;;;;;;;;;;;;16.47;100.00;100675.19;5070182;28;20422;-58
2023/07/29 05:36:35;;;;;;;;;;;;;;;16.46;100.00;100665.56;5069293;28;19916;-58
2023/07/29 05:39:00;;;;;;;;;;;;;;;16.46;100.00;100674.31;5069470;28;19919;-58
2023/07/29 05:41:27;;;;;;;;;;;;;;;16.49;100.00;100676.06;5066094;28;19912;-58
2023/07/29 05:43:53;;;;;;;;;;;;;;;16.51;100.00;100679.53;5069192;28;19912;-58
2023/07/29 05:46:18;;;;;;;;;;;;;;;16.50;100.00;100673.41;5070904;28;19923;-58
2023/07/29 05:48:43;;;;;;;;;;;;;;;16.56;100.00;100672.53;5067393;28;19912;-58
2023/07/29 05:51:08;;;;;;;;;;;;;;;16.56;100.00;100676.91;5069886;28;20431;-58
2023/07/29 05:53:34;;;;;;;;;;;;;;;16.58;100.00;100675.16;5070476;28;19912;-58
2023/07/29 05:55:59;;;;;;;;;;;;;;;16.61;100.00;100675.13;5067741;28;19916;-58
2023/07/29 05:58:24;;;;;;;;;;;;;;;16.66;100.00;100673.38;5066018;28;19927;-58
2023/07/29 06:00:49;;;;;;;;;;;;;;;16.71;100.00;100675.97;5068992;28;20513;-58
2023/07/29 06:03:14;;;;;;;;;;;;;;;16.76;100.00;100679.47;5070299;28;19912;-58
2023/07/29 06:05:40;;;;;;;;;;;;;;;16.82;100.00;100672.41;5052768;28;19928;-58
2023/07/29 06:08:05;;;;;;;;;;;;;;;16.88;100.00;100668.03;5070272;28;19932;-58
2023/07/29 06:10:30;;;;;;;;;;;;;;;16.95;100.00;100670.63;5069934;28;20429;-58
2023/07/29 06:12:55;;;;;;;;;;;;;;;16.99;100.00;100667.09;5064074;28;19915;-58
2023/07/29 06:15:22;;;;;;;;;;;;;;;17.05;100.00;100663.56;5059095;28;19913;-58
2023/07/29 06:17:48;;;;;;;;;;;;;;;17.10;100.00;100677.53;5070368;28;20436;-58
2023/07/29 06:20:13;;;;;;;;;;;;;;;17.17;100.00;100673.13;5071285;28;19912;-58
2023/07/29 06:22:38;;;;;;;;;;;;;;;17.33;100.00;100663.38;5065688;28;19908;-58
2023/07/29 06:25:03;;;;;;;;;;;;;;;17.37;100.00;100662.47;5062051;28;19917;-58
2023/07/29 06:27:28;;;;;;;;;;;;;;;17.42;100.00;100660.66;5068925;28;19982;-58
2023/07/29 06:29:55;;;;;;;;;;;;;;;17.42;99.76;100662.41;5071417;28;19925;-58
2023/07/29 06:32:20;;;;;;;;;;;;;;;17.36;99.90;100663.34;5069988;28;20430;-58
2023/07/29 06:34:45;;;;;;;;;;;;;;;17.35;100.00;100672.13;5062356;28;20366;-58
2023/07/29 06:37:10;;;;;;;;;;;;;;;17.36;100.00;100671.25;5041746;28;19917;-58
2023/07/29 06:39:35;;;;;;;;;;;;;;;17.37;100.00;100673.00;5070007;28;20400;-58
2023/07/29 06:42:01;;;;;;;;;;;;;;;17.39;100.00;100665.94;5067642;28;19916;-58
2023/07/29 06:44:27;;;;;;;;;;;;;;;17.48;100.00;100670.25;5066015;28;19912;-58
2023/07/29 06:46:52;;;;;;;;;;;;;;;17.64;100.00;100657.84;5065609;28;20019;-58
2023/07/29 06:49:17;;;;;;;;;;;;;;;17.57;99.90;100657.03;5066718;28;19941;-58
2023/07/29 06:51:42;;;;;;;;;;;;;;;17.57;100.00;100664.94;5068349;28;19918;-58
2023/07/29 06:54:07;;;;;;;;;;;;;;;17.63;100.00;100669.28;5069193;28;19961;-58
2023/07/29 06:56:33;;;;;;;;;;;;;;;17.65;100.00;100676.28;5067875;28;19916;-58
2023/07/29 06:58:58;;;;;;;;;;;;;;;17.73;100.00;100677.09;5069448;28;20390;-58
2023/07/29 07:01:23;;;;;;;;;;;;;;;17.75;100.00;100681.47;5068293;28;19912;-58
2023/07/29 07:03:48;;;;;;;;;;;;;;;17.87;100.00;100690.16;5067285;28;19908;-58
2023/07/29 07:06:13;;;;;;;;;;;;;;;17.88;100.00;100686.63;5062256;28;19920;-58
2023/07/29 07:08:39;;;;;;;;;;;;;;;17.99;100.00;100685.69;5066424;28;20345;-58
2023/07/29 07:11:04;;;;;;;;;;;;;;;18.16;100.00;100686.41;5067052;28;20379;-58
2023/07/29 07:13:29;;;;;;;;;;;;;;;18.23;100.00;100693.34;5065189;28;20302;-58
2023/07/29 07:15:55;;;;;;;;;;;;;;;18.35;96.88;100692.34;5066890;28;19908;-58
2023/07/29 07:18:22;;;;;;;;;;;;;;;18.21;98.46;100692.47;5062011;28;20427;-58
2023/07/29 07:20:48;;;;;;;;;;;;;;;18.22;98.98;100691.59;5061039;28;19908;-58
2023/07/29 07:23:13;;;;;;;;;;;;;;;18.27;98.71;100690.69;5066109;28;19924;-58
2023/07/29 07:25:38;;;;;;;;;;;;;;;18.29;98.04;100691.53;5061350;28;19920;-58
2023/07/29 07:28:04;;;;;;;;;;;;;;;18.29;98.86;100700.31;5062436;28;19917;-58
2023/07/29 07:30:29;;;;;;;;;;;;;;;18.35;99.24;100702.91;5069113;28;20330;-58
2023/07/29 07:32:54;;;;;;;;;;;;;;;18.47;98.46;100696.59;5066518;28;19916;-58
2023/07/29 07:35:19;;;;;;;;;;;;;;;18.50;98.47;100696.56;5067961;28;21457;-58
2023/07/29 07:37:44;;;;;;;;;;;;;;;18.59;97.60;100711.41;5069051;28;20001;-60
2023/07/29 07:40:10;;;;;;;;;;;;;;;18.57;96.91;100707.94;5065618;28;19923;-60
2023/07/29 07:42:35;;;;;;;;;;;;;;;18.55;97.34;100710.59;5069491;28;19920;-60
2023/07/29 07:45:00;;;;;;;;;;;;;;;18.58;98.02;100720.22;5066270;28;20294;-60
2023/07/29 07:47:25;;;;;;;;;;;;;;;18.64;97.72;100714.00;5066574;28;19916;-60
2023/07/29 07:49:50;;;;;;;;;;;;;;;18.79;94.76;100708.53;5074638;28;19922;-60
2023/07/29 07:52:16;;;;;;;;;;;;;;;18.73;95.18;100719.19;5067574;28;19979;-60
2023/07/29 07:54:41;;;;;;;;;;;;;;;18.82;94.50;100728.75;5064019;28;20374;-60
2023/07/29 07:57:06;;;;;;;;;;;;;;;19.01;94.33;100724.13;5072133;28;19916;-60
2023/07/29 07:59:31;;;;;;;;;;;;;;;19.02;94.92;100720.63;5072727;28;19916;-60
2023/07/29 08:01:56;;;;;;;;;;;;;;;19.07;94.22;100713.47;5070924;28;19917;-60
2023/07/29 08:04:22;;;;;;;;;;;;;;;19.13;93.20;100708.09;5072269;28;20346;-60
2023/07/29 08:06:47;;;;;;;;;;;;;;;19.12;94.12;100706.38;5072181;28;19912;-60
2023/07/29 08:09:12;;;;;;;;;;;;;;;19.18;93.93;100708.94;5073844;28;19912;-60
2023/07/29 08:11:37;;;;;;;;;;;;;;;19.26;94.58;100706.16;5071251;28;19923;-59
2023/07/29 08:14:02;;;;;;;;;;;;;;;19.35;94.88;100705.16;5071417;28;19935;-60
2023/07/29 08:16:28;;;;;;;;;;;;;;;19.45;93.30;100712.03;5071994;28;19916;-60
2023/07/29 08:18:53;;;;;;;;;;;;;;;19.61;90.31;100710.03;5073667;28;20390;-60
2023/07/29 08:21:18;;;;;;;;;;;;;;;19.58;89.40;100725.94;5062928;28;19912;-60
2023/07/29 08:23:43;;;;;;;;;;;;;;;19.47;90.34;100723.47;5071801;28;19916;-60
2023/07/29 08:26:09;;;;;;;;;;;;;;;19.48;88.65;100727.00;5075726;28;19920;-60
2023/07/29 08:28:35;;;;;;;;;;;;;;;19.40;88.18;100735.03;5067540;28;20378;-60
2023/07/29 08:31:01;;;;;;;;;;;;;;;19.28;87.84;100717.59;5067173;28;19966;-60
2023/07/29 08:33:26;;;;;;;;;;;;;;;19.23;88.40;100720.31;5066956;28;20005;-60
2023/07/29 08:35:52;;;;;;;;;;;;;;;19.20;88.90;100717.69;5070278;28;20385;-60
2023/07/29 08:38:17;;;;;;;;;;;;;;;19.18;89.96;100719.50;5071522;28;20337;-60
2023/07/29 08:40:45;;;;;;;;;;;;;;;19.23;89.98;100717.69;5067259;28;20432;-60
2023/07/29 08:43:12;;;;;;;;;;;;;;;19.28;89.15;100718.47;5069178;28;19916;-60
2023/07/29 08:45:38;;;;;;;;;;;;;;;19.39;87.71;100722.72;5068466;28;19920;-60
2023/07/29 08:48:07;;;;;;;;;;;;;;;19.31;89.07;100712.28;5068926;28;19912;-60
2023/07/29 08:50:32;;;;;;;;;;;;;;;19.40;88.70;100705.97;5070149;28;19913;-60
2023/07/29 08:52:58;;;;;;;;;;;;;;;19.59;88.19;100706.56;5064320;28;20356;-60
2023/07/29 08:55:23;;;;;;;;;;;;;;;19.89;87.60;100714.94;5070912;28;19916;-60
2023/07/29 08:57:48;;;;;;;;;;;;;;;20.06;86.76;100706.66;5068896;28;19916;-60
2023/07/29 09:00:14;;;;;;;;;;;;;;;20.17;86.71;100711.78;5069237;28;19916;-60
2023/07/29 09:02:39;;;;;;;;;;;;;;;20.25;87.16;100704.59;5071653;28;20270;-60
2023/07/29 09:05:05;;;;;;;;;;;;;;;20.38;83.98;100707.84;5070673;28;19916;-60
2023/07/29 09:07:30;;;;;;;;;;;;;;;20.33;85.72;100714.13;5064893;28;19969;-60
2023/07/29 09:09:55;;;;;;;;;;;;;;;20.32;84.84;100715.03;5070964;28;19916;-60
2023/07/29 09:12:21;;;;;;;;;;;;;;;20.43;82.50;100712.16;5070607;28;19919;-60
2023/07/29 09:14:46;;;;;;;;;;;;;;;20.34;83.91;100717.63;5070615;28;19916;-60
2023/07/29 09:17:12;;;;;;;;;;;;;;;20.33;84.13;100711.47;5069107;28;19916;-61
2023/07/29 09:19:37;;;;;;;;;;;;;;;20.40;82.55;100703.41;5067906;28;19918;-61
2023/07/29 09:22:02;;;;;;;;;;;;;;;20.45;84.05;100715.66;5067198;28;19912;-60
2023/07/29 09:24:29;;;;;;;;;;;;;;;20.60;83.52;100700.38;5069082;28;19908;-60
2023/07/29 09:26:55;;;;;;;;;;;;;;;20.75;83.04;100696.56;5066612;28;19991;-60
2023/07/29 09:29:26;;;;;;;;;;;;;;;20.96;83.04;100692.59;5070293;28;20003;-60
2023/07/29 09:31:51;;;;;;;;;;;;;;;21.13;81.03;100687.78;5070922;28;19923;-61
2023/07/29 09:34:17;;;;;;;;;;;;;;;21.31;79.52;100691.78;5068650;28;19908;-61
2023/07/29 09:36:43;;;;;;;;;;;;;;;21.34;80.70;100697.00;5070461;28;19961;-60
2023/07/29 09:39:12;;;;;;;;;;;;;;;21.46;78.56;100690.53;5070958;28;19935;-60
2023/07/29 09:41:38;;;;;;;;;;;;;;;21.43;81.55;100690.59;5070211;28;19916;-60
2023/07/29 09:44:05;;;;;;;;;;;;;;;21.50;80.53;100694.84;5070429;28;20401;-58
2023/07/29 09:46:37;;;;;;;;;;;;;;;21.56;77.12;100693.88;5070994;28;19920;-60
2023/07/29 09:49:03;;;;;;;;;;;;;;;21.30;78.56;100697.97;5043519;28;19912;-60
2023/07/29 09:51:28;;;;;;;;;;;;;;;21.12;80.12;100690.47;5062641;28;19912;-60
2023/07/29 09:53:55;;;;;;;;;;;;;;;21.07;80.42;100702.94;5058715;28;19919;-59
2023/07/29 09:56:24;;;;;;;;;;;;;;;21.05;79.13;100710.06;5061733;28;19998;-59
2023/07/29 09:58:49;;;;;;;;;;;;;;;20.95;79.64;100714.69;5071309;28;19929;-58
2023/07/29 10:01:15;;;;;;;;;;;;;;;20.92;79.40;100707.66;5069638;28;19912;-58
2023/07/29 10:03:40;;;;;;;;;;;;;;;20.89;78.74;100707.75;5065642;28;20446;-59
2023/07/29 10:06:07;;;;;;;;;;;;;;;20.78;79.91;100707.97;5055650;28;19924;-58
2023/07/29 10:08:35;;;;;;;;;;;;;;;20.72;79.69;100710.72;5050013;28;19913;-58
2023/07/29 10:11:01;;;;;;;;;;;;;;;20.64;80.65;100705.56;5066331;28;19927;-58
2023/07/29 10:13:27;;;;;;;;;;;;;;;20.65;82.42;100699.38;5071602;28;19908;-58
2023/07/29 10:15:53;;;;;;;;;;;;;;;20.79;82.80;100703.53;5068560;28;19973;-58
2023/07/29 10:18:18;;;;;;;;;;;;;;;21.07;83.13;100702.94;5067536;28;19916;-58
2023/07/29 10:20:44;;;;;;;;;;;;;;;21.38;82.74;100695.16;5066822;28;19935;-58
2023/07/29 10:23:09;;;;;;;;;;;;;;;21.64;82.00;100696.34;5071491;28;20325;-58
2023/07/29 10:25:39;;;;;;;;;;;;;;;21.85;81.22;100689.63;5052284;28;19936;-58
2023/07/29 10:28:06;;;;;;;;;;;;;;;21.97;80.71;100694.63;5055816;28;19912;-58
2023/07/29 10:30:32;;;;;;;;;;;;;;;22.01;80.00;100687.44;5067965;28;19919;-58
2023/07/29 10:32:58;;;;;;;;;;;;;;;22.03;80.87;100685.63;5059806;28;19912;-58
2023/07/29 10:35:25;;;;;;;;;;;;;;;22.07;78.42;100681.97;5053416;28;19917;-58
2023/07/29 10:37:52;;;;;;;;;;;;;;;22.12;79.27;100679.22;5067822;28;20374;-58
2023/07/29 10:40:17;;;;;;;;;;;;;;;22.17;78.21;100677.28;5066856;28;19912;-58
2023/07/29 10:43:02;;;;;;;;;;;;;;;22.25;79.46;100680.59;5070192;28;20333;-58
2023/07/29 10:45:35;;;;;;;;;;;;;;;22.36;78.28;100667.94;5052405;28;19954;-58
2023/07/29 10:48:04;;;;;;;;;;;;;;;22.57;77.56;100671.75;5065781;28;19991;-58
2023/07/29 10:50:29;;;;;;;;;;;;;;;22.80;74.34;100670.22;5070238;28;19916;-58
2023/07/29 10:52:56;;;;;;;;;;;;;;;22.93;70.29;100670.72;5069191;28;19912;-58
2023/07/29 10:55:26;;;;;;;;;;;;;;;22.64;75.53;100669.78;5061332;28;20382;-58
2023/07/29 10:57:51;;;;;;;;;;;;;;;22.52;73.70;100670.13;5065413;28;19967;-58
2023/07/29 11:00:19;;;;;;;;;;;;;;;22.34;74.28;100668.88;5067172;28;19913;-59
2023/07/29 11:02:47;;;;;;;;;;;;;;;22.26;76.00;100666.44;5068464;28;19912;-59
2023/07/29 11:05:17;;;;;;;;;;;;;;;22.24;75.80;100670.88;5062408;28;20394;-58
2023/07/29 11:07:46;;;;;;;;;;;;;;;22.19;76.43;100675.47;5064733;28;19913;-58
2023/07/29 11:10:12;;;;;;;;;;;;;;;22.17;77.56;100671.97;5066447;28;19927;-58
2023/07/29 11:12:38;;;;;;;;;;;;;;;22.16;77.43;100673.75;5058875;28;19908;-58
2023/07/29 11:15:09;;;;;;;;;;;;;;;22.14;75.88;100677.38;5070740;28;19922;-58
2023/07/29 11:17:35;;;;;;;;;;;;;;;22.00;76.80;100683.91;5068391;28;19951;-58
2023/07/29 11:20:01;;;;;;;;;;;;;;;21.88;76.70;100677.16;5063597;28;20401;-58
2023/07/29 11:22:26;;;;;;;;;;;;;;;21.81;76.20;100675.59;5060907;28;19912;-58
2023/07/29 11:24:51;;;;;;;;;;;;;;;21.75;76.86;100680.16;5066528;28;19920;-59
2023/07/29 11:27:16;;;;;;;;;;;;;;;21.66;77.70;100676.81;5067263;28;19912;-58
2023/07/29 11:29:42;;;;;;;;;;;;;;;21.56;77.68;100675.31;5075162;28;20026;-58
2023/07/29 11:32:07;;;;;;;;;;;;;;;21.61;78.99;100680.50;5066820;28;19918;-58
2023/07/29 11:34:32;;;;;;;;;;;;;;;21.82;78.53;100682.59;5071094;28;20267;-58
2023/07/29 11:36:58;;;;;;;;;;;;;;;21.98;78.59;100677.75;5069868;28;19920;-59
2023/07/29 11:39:23;;;;;;;;;;;;;;;22.14;77.97;100675.56;5069968;28;19963;-58
2023/07/29 11:41:48;;;;;;;;;;;;;;;22.26;77.89;100677.03;5069650;28;19963;-58
2023/07/29 11:44:17;;;;;;;;;;;;;;;22.34;77.79;100675.06;5075844;28;20340;-58
2023/07/29 11:46:42;;;;;;;;;;;;;;;22.48;75.54;100679.09;5060968;28;20019;-58
2023/07/29 11:49:07;;;;;;;;;;;;;;;22.50;75.94;100674.63;5077065;28;19995;-58
2023/07/29 11:51:33;;;;;;;;;;;;;;;22.58;76.77;100669.97;5071739;28;20427;-58
2023/07/29 11:53:58;;;;;;;;;;;;;;;22.70;76.54;100663.44;5066896;28;20330;-58
2023/07/29 11:56:24;;;;;;;;;;;;;;;22.85;76.31;100660.28;5064792;28;20267;-58
2023/07/29 11:58:49;;;;;;;;;;;;;;;22.96;75.24;100645.84;5066392;28;20384;-58
2023/07/29 12:01:14;;;;;;;;;;;;;;;23.04;73.76;100644.69;5076320;28;20430;-58
2023/07/29 12:03:40;;;;;;;;;;;;;;;23.11;74.60;100647.16;5068828;28;19909;-59
2023/07/29 12:06:06;;;;;;;;;;;;;;;23.08;73.86;100656.91;5065539;28;20026;-58
2023/07/29 12:08:31;;;;;;;;;;;;;;;22.97;73.94;100667.03;5057709;28;20034;-58
2023/07/29 12:10:56;;;;;;;;;;;;;;;22.87;73.52;100669.09;5063292;28;20035;-58
2023/07/29 12:13:24;;;;;;;;;;;;;;;22.76;73.46;100673.88;5059034;28;19916;-58
2023/07/29 12:15:49;;;;;;;;;;;;;;;22.64;74.28;100691.03;5063938;28;20371;-58
2023/07/29 12:18:14;;;;;;;;;;;;;;;22.51;74.95;100698.47;5075865;28;19978;-59
2023/07/29 12:20:40;;;;;;;;;;;;;;;22.31;75.96;100706.13;5076744;28;19908;-59
2023/07/29 12:23:07;;;;;;;;;;;;;;;22.10;76.21;100707.53;5057588;28;19975;-58